Time;durP1;ratioP1;P1;durP2;ratioP2;P2;SDS_P1;SDS_P2;PMS_P1;PMS_P2;Temp;Humidity;BMP_temperature;BMP_pressure;BME280_temperature;BME280_humidity;BME280_pressure;Samples;Min_cycle;Max_cycle;Signal;HPM_P1;HPM_P2
2022/03/16 00:01:34;;;;;;;29.73;22.40;;;;;;;2.30;91.76;102476.16;4717517;30;20072;-77
2022/03/16 00:04:00;;;;;;;31.08;23.23;;;;;;;2.23;92.20;102456.59;4717457;30;20041;-74
2022/03/16 00:06:25;;;;;;;33.60;22.98;;;;;;;2.16;92.42;102445.56;4716859;30;20021;-76
2022/03/16 00:08:51;;;;;;;30.02;23.15;;;;;;;2.23;92.54;102462.56;4717147;30;20548;-77
2022/03/16 00:11:17;;;;;;;30.83;23.75;;;;;;;2.26;92.48;102469.34;4717219;30;20132;-75
2022/03/16 00:13:43;;;;;;;29.05;22.83;;;;;;;1.97;92.59;102426.94;4717391;30;20116;-75
2022/03/16 00:16:08;;;;;;;32.38;23.05;;;;;;;2.22;92.13;102463.41;4701499;30;20513;-77
2022/03/16 00:18:33;;;;;;;29.67;22.42;;;;;;;2.23;92.59;102469.34;4717241;30;20037;-75
2022/03/16 00:20:59;;;;;;;28.75;22.45;;;;;;;2.20;92.97;102467.66;4717328;30;20489;-77
2022/03/16 00:23:25;;;;;;;29.48;22.67;;;;;;;1.96;93.05;102434.56;4717076;30;20037;-78
2022/03/16 00:25:51;;;;;;;28.85;22.55;;;;;;;2.01;92.88;102443.91;4717160;30;20029;-75
2022/03/16 00:28:16;;;;;;;31.02;22.52;;;;;;;2.07;92.97;102455.81;4716961;30;20025;-78
2022/03/16 00:30:42;;;;;;;29.42;21.55;;;;;;;2.10;93.26;102466.00;4717155;30;20037;-78
2022/03/16 00:33:11;;;;;;;26.88;21.40;;;;;;;1.89;92.92;102431.22;4717098;30;20037;-77
2022/03/16 00:35:39;;;;;;;28.35;21.98;;;;;;;1.99;92.63;102466.00;4716867;30;20037;-77
2022/03/16 00:38:05;;;;;;;31.50;21.13;;;;;;;1.99;93.03;102465.16;4716898;30;20033;-77
2022/03/16 00:40:34;;;;;;;27.33;21.38;;;;;;;1.86;93.27;102450.72;4717137;30;20048;-78
2022/03/16 00:43:00;;;;;;;28.30;21.73;;;;;;;1.93;93.40;102466.00;4716981;30;20059;-75
2022/03/16 00:45:25;;;;;;;29.77;22.35;;;;;;;1.96;93.23;102471.09;4716762;30;20033;-73
2022/03/16 00:47:51;;;;;;;28.10;21.65;;;;;;;1.93;93.91;102466.00;4716861;30;20124;-77
2022/03/16 00:50:17;;;;;;;32.05;23.00;;;;;;;1.97;93.56;102474.50;4716773;30;20036;-74
2022/03/16 00:52:42;;;;;;;31.30;21.83;;;;;;;1.86;93.41;102464.31;4716919;30;20095;-74
2022/03/16 00:55:08;;;;;;;32.13;23.63;;;;;;;1.95;94.71;102474.47;4716909;30;20105;-76
2022/03/16 00:57:33;;;;;;;28.95;22.02;;;;;;;1.87;93.73;102473.66;4716959;30;20040;-75
2022/03/16 00:59:59;;;;;;;29.90;21.92;;;;;;;1.82;93.53;102470.25;4716705;30;20376;-74
2022/03/16 01:02:24;;;;;;;28.48;21.80;;;;;;;1.78;93.51;102460.09;4716906;30;20483;-73
2022/03/16 01:04:50;;;;;;;30.85;22.83;;;;;;;1.79;93.94;102457.53;4716779;30;20021;-75
2022/03/16 01:07:15;;;;;;;27.90;21.35;;;;;;;1.72;93.97;102459.22;4716844;30;20037;-76
2022/03/16 01:09:40;;;;;;;26.90;21.42;;;;;;;1.73;93.78;102460.91;4716660;30;20064;-77
2022/03/16 01:12:09;;;;;;;28.38;20.48;;;;;;;1.61;93.70;102450.75;4716862;30;20033;-73
2022/03/16 01:14:35;;;;;;;25.80;19.33;;;;;;;1.67;93.54;102458.41;4716626;30;20033;-74
2022/03/16 01:17:01;;;;;;;26.83;20.20;;;;;;;1.67;94.06;102454.97;4718404;30;20095;-75
2022/03/16 01:19:26;;;;;;;30.52;23.48;;;;;;;1.62;95.10;102433.78;4720034;30;20025;-74
2022/03/16 01:21:53;;;;;;;27.25;21.25;;;;;;;1.71;94.67;102456.69;4720053;30;20437;-73
2022/03/16 01:24:18;;;;;;;28.75;21.30;;;;;;;1.60;94.31;102441.41;4720100;30;20391;-74
2022/03/16 01:26:44;;;;;;;28.55;20.92;;;;;;;1.66;94.27;102448.19;4704620;30;20048;-75
2022/03/16 01:29:09;;;;;;;27.90;20.70;;;;;;;1.68;94.78;102446.50;4719892;30;20067;-73
2022/03/16 01:31:35;;;;;;;28.23;21.85;;;;;;;1.68;94.87;102451.59;4719962;30;20112;-75
2022/03/16 01:34:00;;;;;;;29.25;22.30;;;;;;;1.60;95.01;102443.09;4719866;30;20029;-74
2022/03/16 01:36:26;;;;;;;28.23;21.35;;;;;;;1.47;94.78;102424.41;4719869;30;20077;-74
2022/03/16 01:38:52;;;;;;;28.30;21.83;;;;;;;1.48;95.08;102423.59;4719901;30;20041;-74
2022/03/16 01:41:17;;;;;;;25.75;18.88;;;;;;;1.56;94.82;102439.69;4719858;30;20037;-77
2022/03/16 01:43:43;;;;;;;29.70;20.88;;;;;;;1.52;94.29;102432.91;4719972;30;20493;-74
2022/03/16 01:46:08;;;;;;;25.98;19.35;;;;;;;1.55;94.79;102438.00;4719737;30;20116;-75
2022/03/16 01:48:34;;;;;;;27.25;21.23;;;;;;;1.53;94.82;102432.06;4719683;30;20569;-74
2022/03/16 01:51:00;;;;;;;28.73;20.27;;;;;;;1.52;95.10;102432.91;4719798;30;20040;-73
2022/03/16 01:53:26;;;;;;;35.42;25.67;;;;;;;1.59;97.39;102421.03;4719769;30;20472;-74
2022/03/16 01:55:52;;;;;;;29.30;23.20;;;;;;;1.38;97.14;102397.28;4719821;30;20033;-76
2022/03/16 01:58:17;;;;;;;34.03;24.33;;;;;;;1.71;97.32;102418.47;4719471;30;20033;-77
2022/03/16 02:00:43;;;;;;;28.83;22.88;;;;;;;1.67;96.97;102419.31;4719541;30;20112;-77
2022/03/16 02:03:08;;;;;;;33.30;24.20;;;;;;;1.75;97.19;102415.06;4719612;30;20076;-77
2022/03/16 02:05:37;;;;;;;29.80;22.77;;;;;;;1.62;97.10;102393.88;4719464;30;20124;-78
2022/03/16 02:08:05;;;;;;;36.28;26.48;;;;;;;1.88;98.96;102401.50;4719286;30;20043;-76
2022/03/16 02:10:34;;;;;;;37.90;26.45;;;;;;;1.91;99.59;102396.38;4719189;30;20060;-79
2022/03/16 02:12:59;;;;;;;37.25;27.13;;;;;;;2.10;100.00;102412.47;4719500;30;20035;-78
2022/03/16 02:15:25;;;;;;;36.72;27.73;;;;;;;2.20;100.00;102403.09;4719099;30;20104;-79
2022/03/16 02:17:54;;;;;;;39.60;27.48;;;;;;;2.12;100.00;102385.28;4719369;30;20033;-79
2022/03/16 02:20:27;;;;;;;36.85;27.35;;;;;;;2.14;100.00;102377.63;4719251;30;20040;-78
2022/03/16 02:23:02;;;;;;;40.78;29.55;;;;;;;2.33;100.00;102393.72;4719100;30;20115;-76
2022/03/16 02:25:29;;;;;;;42.58;31.30;;;;;;;2.30;100.00;102380.13;4719249;30;20094;-79
2022/03/16 02:27:55;;;;;;;39.22;30.35;;;;;;;2.44;100.00;102394.50;4718304;30;20103;-76
2022/03/16 02:30:22;;;;;;;43.05;29.67;;;;;;;2.48;100.00;102391.13;4718972;30;20033;-79
2022/03/16 02:32:48;;;;;;;41.08;30.63;;;;;;;2.40;100.00;102362.25;4719143;30;20052;-78
2022/03/16 02:35:14;;;;;;;39.72;30.80;;;;;;;2.63;100.00;102382.53;4719012;30;20128;-78
2022/03/16 02:37:39;;;;;;;40.47;30.45;;;;;;;2.65;100.00;102384.22;4718988;30;20041;-79
2022/03/16 02:40:07;;;;;;;42.70;31.10;;;;;;;2.66;100.00;102385.94;4719023;30;20107;-79
2022/03/16 02:42:33;;;;;;;40.72;30.63;;;;;;;2.47;100.00;102362.22;4719073;30;20037;-79
2022/03/16 02:44:58;;;;;;;41.40;30.25;;;;;;;2.66;100.00;102395.28;4702761;30;20129;-79
2022/03/16 02:47:24;;;;;;;41.67;28.90;;;;;;;2.54;100.00;102371.50;4718857;30;20051;-79
2022/03/16 02:49:50;;;;;;;39.92;29.75;;;;;;;2.63;100.00;102395.28;4718722;30;20037;-79
2022/03/16 02:52:16;;;;;;;40.67;30.35;;;;;;;2.56;100.00;102387.69;4718756;30;20033;-79
2022/03/16 02:54:41;;;;;;;37.25;28.50;;;;;;;2.53;100.00;102390.22;4718741;30;20025;-79
2022/03/16 02:57:07;;;;;;;38.05;29.10;;;;;;;2.48;100.00;102394.50;4718720;30;20061;-79
2022/03/16 02:59:33;;;;;;;37.30;28.52;;;;;;;2.32;100.00;102367.38;4718621;30;20426;-78
2022/03/16 03:01:59;;;;;;;37.70;28.85;;;;;;;2.22;100.00;102352.97;4718413;30;20040;-79
2022/03/16 03:04:24;;;;;;;37.97;28.42;;;;;;;2.29;100.00;102363.16;4702794;30;20033;-79
2022/03/16 03:06:49;;;;;;;35.50;28.40;;;;;;;2.43;100.00;102395.38;4718375;30;20033;-79
2022/03/16 03:09:14;;;;;;;36.30;27.27;;;;;;;2.32;100.00;102377.56;4718380;30;20116;-79
2022/03/16 03:11:40;;;;;;;34.67;27.98;;;;;;;2.41;100.00;102390.28;4718381;30;20489;-79
2022/03/16 03:14:05;;;;;;;36.72;29.15;;;;;;;2.27;100.00;102364.00;4718339;30;20460;-79
2022/03/16 03:16:31;;;;;;;33.50;27.02;;;;;;;2.25;100.00;102361.44;4718242;30;20037;-78
2022/03/16 03:18:56;;;;;;;35.58;27.13;;;;;;;2.29;100.00;102372.50;4718198;30;20033;-79
2022/03/16 03:21:21;;;;;;;36.22;28.13;;;;;;;2.34;100.00;102377.56;4718154;30;20033;-78
2022/03/16 03:23:47;;;;;;;38.80;29.88;;;;;;;2.14;100.00;102339.41;4702373;30;20407;-78
2022/03/16 03:26:12;;;;;;;38.10;28.85;;;;;;;2.37;100.00;102380.13;4717850;30;20052;-78
2022/03/16 03:28:37;;;;;;;40.08;28.60;;;;;;;2.32;100.00;102380.13;4718195;30;20036;-78
2022/03/16 03:31:03;;;;;;;36.60;28.70;;;;;;;2.22;100.00;102363.16;4718051;30;20097;-77
2022/03/16 03:33:29;;;;;;;40.65;28.55;;;;;;;2.27;100.00;102375.06;4718168;30;20036;-76
2022/03/16 03:35:54;;;;;;;39.20;28.42;;;;;;;2.28;100.00;102378.44;4717981;30;20036;-77
2022/03/16 03:38:20;;;;;;;37.13;28.42;;;;;;;2.10;100.00;102364.06;4717880;30;20033;-77
2022/03/16 03:40:45;;;;;;;37.50;29.20;;;;;;;2.22;100.00;102389.50;4702112;30;20072;-79
2022/03/16 03:43:10;;;;;;;35.67;26.55;;;;;;;2.20;100.00;102396.31;4717861;30;20029;-79
2022/03/16 03:45:36;;;;;;;39.30;28.73;;;;;;;2.19;100.00;102391.22;4718002;30;20032;-77
2022/03/16 03:48:01;;;;;;;38.13;29.63;;;;;;;2.18;100.00;102387.81;4717594;30;20065;-78
2022/03/16 03:50:26;;;;;;;39.50;29.38;;;;;;;2.18;100.00;102392.06;4717820;30;20380;-78
2022/03/16 03:52:52;;;;;;;42.97;29.98;;;;;;;2.12;100.00;102375.09;4717649;30;20053;-79
2022/03/16 03:55:20;;;;;;;36.78;29.15;;;;;;;2.11;100.00;102377.66;4701964;30;20065;-79
2022/03/16 03:57:45;;;;;;;37.30;28.45;;;;;;;2.14;100.00;102390.38;4717721;30;20033;-79
2022/03/16 04:00:11;;;;;;;38.38;29.50;;;;;;;2.05;100.00;102368.31;4717688;30;20036;-78
2022/03/16 04:02:36;;;;;;;38.15;28.65;;;;;;;2.12;100.00;102390.38;4717520;30;20515;-78
2022/03/16 04:05:04;;;;;;;38.97;29.17;;;;;;;2.10;100.00;102397.19;4717477;30;20033;-79
2022/03/16 04:07:29;;;;;;;36.85;29.52;;;;;;;2.08;100.00;102395.50;4717406;30;20061;-78
2022/03/16 04:09:55;;;;;;;38.78;30.60;;;;;;;2.09;100.00;102392.09;4717040;30;20100;-79
2022/03/16 04:12:20;;;;;;;38.13;29.15;;;;;;;2.08;100.00;102385.31;4717291;30;20040;-78
2022/03/16 04:14:45;;;;;;;37.38;29.73;;;;;;;1.93;100.00;102360.72;4717474;30;20039;-74
2022/03/16 04:17:11;;;;;;;39.92;30.60;;;;;;;1.99;100.00;102363.25;4717260;30;20120;-77
2022/03/16 04:19:36;;;;;;;37.95;30.23;;;;;;;2.11;100.00;102383.59;4717498;30;20040;-79
2022/03/16 04:22:02;;;;;;;40.85;31.77;;;;;;;2.06;100.00;102372.56;4717060;30;20041;-79
2022/03/16 04:24:27;;;;;;;41.78;33.22;;;;;;;2.10;100.00;102386.16;4717253;30;20040;-78
2022/03/16 04:26:53;;;;;;;38.83;31.45;;;;;;;2.07;100.00;102378.53;4717111;30;20033;-78
2022/03/16 04:29:18;;;;;;;38.75;31.90;;;;;;;2.13;100.00;102384.44;4717277;30;20041;-74
2022/03/16 04:31:44;;;;;;;41.40;32.05;;;;;;;2.14;100.00;102382.72;4717216;30;20470;-73
2022/03/16 04:34:09;;;;;;;43.08;33.70;;;;;;;2.12;100.00;102381.88;4717105;30;20169;-77
2022/03/16 04:36:34;;;;;;;42.78;33.30;;;;;;;2.03;100.00;102369.19;4716938;30;20079;-75
2022/03/16 04:39:00;;;;;;;42.47;32.92;;;;;;;2.13;100.00;102384.44;4717125;30;20033;-74
2022/03/16 04:41:26;;;;;;;42.15;33.03;;;;;;;2.04;100.00;102371.72;4716954;30;20033;-74
2022/03/16 04:43:51;;;;;;;42.60;32.83;;;;;;;2.12;100.00;102381.88;4717038;30;20029;-73
2022/03/16 04:46:16;;;;;;;44.13;33.33;;;;;;;2.13;100.00;102379.34;4717203;30;20040;-74
2022/03/16 04:48:42;;;;;;;43.88;33.63;;;;;;;2.13;100.00;102379.34;4716768;30;20041;-79
2022/03/16 04:51:07;;;;;;;44.17;32.47;;;;;;;2.08;100.00;102368.31;4716358;30;20037;-77
2022/03/16 04:53:33;;;;;;;40.35;32.45;;;;;;;2.03;100.00;102364.06;4716915;30;20037;-75
2022/03/16 04:55:58;;;;;;;42.03;33.22;;;;;;;2.13;100.00;102379.34;4716824;30;20044;-73
2022/03/16 04:58:23;;;;;;;44.72;33.92;;;;;;;1.91;100.00;102334.41;4716826;30;20040;-75
2022/03/16 05:00:49;;;;;;;42.83;34.25;;;;;;;2.17;100.00;102375.09;4716966;30;20095;-73
2022/03/16 05:03:14;;;;;;;44.45;34.45;;;;;;;2.18;100.00;102377.63;4701053;30;20587;-78
2022/03/16 05:05:39;;;;;;;44.45;34.05;;;;;;;2.16;100.00;102371.66;4716846;30;20114;-76
2022/03/16 05:08:05;;;;;;;43.95;35.53;;;;;;;2.22;100.00;102369.09;4716581;30;20470;-74
2022/03/16 05:10:30;;;;;;;47.15;35.55;;;;;;;2.23;100.00;102372.50;4716540;30;20057;-74
2022/03/16 05:12:56;;;;;;;45.63;35.58;;;;;;;2.10;100.00;102350.47;4716595;30;20029;-79
2022/03/16 05:15:22;;;;;;;46.03;35.20;;;;;;;2.07;100.00;102345.41;4716853;30;20026;-74
2022/03/16 05:17:47;;;;;;;44.95;34.35;;;;;;;2.17;100.00;102370.00;4700800;30;20138;-76
2022/03/16 05:20:14;;;;;;;42.78;33.92;;;;;;;2.08;100.00;102359.84;4716771;30;20029;-79
2022/03/16 05:22:43;;;;;;;44.13;34.53;;;;;;;2.20;100.00;102382.72;4716726;30;20086;-79
2022/03/16 05:25:11;;;;;;;43.63;34.55;;;;;;;2.19;100.00;102379.31;4716758;30;20112;-74
2022/03/16 05:27:40;;;;;;;44.17;34.40;;;;;;;2.20;100.00;102378.47;4716510;30;20086;-76
2022/03/16 05:30:06;;;;;;;44.33;33.38;;;;;;;2.03;100.00;102352.19;4716734;30;20058;-75
2022/03/16 05:32:32;;;;;;;44.17;33.45;;;;;;;2.16;100.00;102368.28;4716212;30;20498;-74
2022/03/16 05:34:58;;;;;;;43.88;33.63;;;;;;;2.05;100.00;102352.19;4700758;30;20045;-74
2022/03/16 05:37:23;;;;;;;44.40;33.65;;;;;;;2.07;100.00;102353.03;4716544;30;20033;-75
2022/03/16 05:39:48;;;;;;;44.97;33.10;;;;;;;2.14;100.00;102365.72;4700957;30;20470;-76
2022/03/16 05:42:14;;;;;;;45.70;32.13;;;;;;;2.14;100.00;102360.63;4716438;30;20502;-76
2022/03/16 05:44:39;;;;;;;40.55;30.20;;;;;;;2.17;100.00;102368.28;4716557;30;20065;-74
2022/03/16 05:47:05;;;;;;;45.92;30.83;;;;;;;1.96;100.00;102328.41;4716364;30;20080;-75
2022/03/16 05:49:30;;;;;;;37.80;30.40;;;;;;;2.18;100.00;102362.34;4716219;30;20387;-77
2022/03/16 05:51:55;;;;;;;38.70;30.63;;;;;;;2.19;100.00;102358.09;4716401;30;20041;-76
2022/03/16 05:54:21;;;;;;;39.70;29.85;;;;;;;2.23;100.00;102369.94;4716467;30;20064;-75
2022/03/16 05:56:46;;;;;;;39.28;30.27;;;;;;;2.10;100.00;102335.19;4716474;30;20026;-77
2022/03/16 05:59:11;;;;;;;38.65;29.23;;;;;;;2.17;100.00;102357.25;4716432;30;20044;-79
2022/03/16 06:01:37;;;;;;;38.95;29.15;;;;;;;2.23;100.00;102359.75;4716365;30;20091;-75
2022/03/16 06:04:02;;;;;;;37.50;27.77;;;;;;;2.16;100.00;102352.97;4717667;30;20376;-74
2022/03/16 06:06:29;;;;;;;39.97;28.52;;;;;;;2.18;100.00;102346.19;4719474;30;20041;-73
2022/03/16 06:08:55;;;;;;;38.10;27.50;;;;;;;2.38;100.00;102371.59;4719352;30;20442;-74
2022/03/16 06:11:20;;;;;;;34.05;25.63;;;;;;;2.31;100.00;102358.03;4719144;30;20053;-74
2022/03/16 06:13:46;;;;;;;30.45;23.42;;;;;;;2.50;100.00;102374.09;4719240;30;20033;-74
2022/03/16 06:16:11;;;;;;;32.45;23.58;;;;;;;2.54;100.00;102379.16;4703569;30;20375;-74
2022/03/16 06:18:36;;;;;;;30.45;23.83;;;;;;;2.62;100.00;102383.38;4719475;30;20029;-74
2022/03/16 06:21:02;;;;;;;28.95;22.35;;;;;;;2.63;100.00;102382.53;4718951;30;20482;-73
2022/03/16 06:23:27;;;;;;;28.65;22.67;;;;;;;2.72;100.00;102390.97;4719306;30;20087;-70
2022/03/16 06:25:53;;;;;;;28.80;22.08;;;;;;;2.79;100.00;102386.69;4719235;30;20037;-73
2022/03/16 06:28:18;;;;;;;26.00;20.95;;;;;;;2.84;100.00;102396.00;4719069;30;20092;-74
2022/03/16 06:30:44;;;;;;;27.65;21.08;;;;;;;2.92;100.00;102397.66;4718986;30;20398;-75
2022/03/16 06:33:09;;;;;;;26.25;19.63;;;;;;;2.90;100.00;102373.88;4719250;30;20368;-77
2022/03/16 06:35:34;;;;;;;26.52;20.00;;;;;;;3.05;100.00;102392.50;4718853;30;20085;-74
2022/03/16 06:38:00;;;;;;;24.90;19.00;;;;;;;3.10;100.00;102387.34;4718975;30;20057;-77
2022/03/16 06:40:25;;;;;;;22.00;17.45;;;;;;;3.02;100.00;102363.59;4719095;30;20033;-78
2022/03/16 06:42:53;;;;;;;23.75;18.35;;;;;;;3.18;100.00;102375.38;4718736;30;20060;-76
2022/03/16 06:45:20;;;;;;;23.10;17.00;;;;;;;3.32;100.00;102396.53;4718918;30;20398;-78
2022/03/16 06:47:45;;;;;;;22.23;17.30;;;;;;;3.29;100.00;102388.06;4718684;30;20032;-80
2022/03/16 06:50:11;;;;;;;22.40;16.38;;;;;;;3.42;100.00;102387.09;4718532;30;20112;-79
2022/03/16 06:52:39;;;;;;;21.08;15.82;;;;;;;3.49;100.00;102391.31;4718545;30;20120;-75
2022/03/16 06:55:04;;;;;;;19.20;14.68;;;;;;;3.55;100.00;102390.41;4718757;30;20036;-78
2022/03/16 06:57:30;;;;;;;19.92;15.30;;;;;;;3.64;100.00;102386.06;4718515;30;20033;-77
2022/03/16 06:59:55;;;;;;;20.27;15.98;;;;;;;3.74;100.00;102374.91;4702861;30;20095;-74
2022/03/16 07:02:20;;;;;;;20.15;16.02;;;;;;;3.85;100.00;102386.72;4718509;30;20095;-76
2022/03/16 07:04:46;;;;;;;19.35;14.45;;;;;;;3.81;100.00;102346.72;4718661;30;20162;-76
2022/03/16 07:07:11;;;;;;;19.92;14.38;;;;;;;3.95;100.00;102343.16;4718486;30;20280;-74
2022/03/16 07:09:36;;;;;;;18.27;13.98;;;;;;;4.12;99.76;102357.44;4718035;30;20515;-75
2022/03/16 07:12:02;;;;;;;18.98;13.50;;;;;;;4.17;99.30;102348.03;4718517;30;20074;-78
2022/03/16 07:14:30;;;;;;;17.13;13.00;;;;;;;4.24;99.37;102347.94;4718008;30;20033;-74
2022/03/16 07:16:56;;;;;;;16.45;13.43;;;;;;;4.28;98.67;102335.94;4718284;30;20059;-74
2022/03/16 07:19:21;;;;;;;17.95;13.15;;;;;;;4.45;98.52;102338.28;4718311;30;20029;-75
2022/03/16 07:21:47;;;;;;;16.67;12.63;;;;;;;4.61;97.84;102345.72;4718378;30;20112;-76
2022/03/16 07:24:12;;;;;;;16.33;12.07;;;;;;;4.63;97.07;102330.38;4717959;30;20040;-75
2022/03/16 07:26:38;;;;;;;15.35;11.90;;;;;;;4.86;96.43;102343.66;4702669;30;20041;-74
2022/03/16 07:29:04;;;;;;;16.67;12.48;;;;;;;4.82;96.15;102311.31;4718092;30;20120;-76
2022/03/16 07:31:30;;;;;;;15.80;12.07;;;;;;;5.09;95.05;102347.56;4718053;30;20116;-74
2022/03/16 07:33:55;;;;;;;15.82;12.45;;;;;;;5.02;94.50;102312.72;4717858;30;20061;-76
2022/03/16 07:36:20;;;;;;;15.68;11.45;;;;;;;5.25;93.94;102338.78;4718102;30;20051;-74
2022/03/16 07:38:46;;;;;;;13.88;10.93;;;;;;;5.17;93.72;102305.63;4720787;30;20487;-74
2022/03/16 07:41:11;;;;;;;13.32;10.32;;;;;;;5.43;92.65;102330.78;4718026;30;20394;-77
2022/03/16 07:43:37;;;;;;;13.77;10.73;;;;;;;5.50;92.06;102323.81;4717896;30;20036;-74
2022/03/16 07:46:03;;;;;;;14.23;10.93;;;;;;;5.65;91.96;102327.84;4717797;30;20081;-78
2022/03/16 07:48:28;;;;;;;12.98;10.95;;;;;;;5.73;90.92;102318.28;4717677;30;20037;-75
2022/03/16 07:50:54;;;;;;;14.38;10.65;;;;;;;5.74;89.87;102310.56;4717543;30;20033;-77
2022/03/16 07:53:19;;;;;;;14.90;11.52;;;;;;;5.87;89.57;102302.63;4717755;30;20141;-75
2022/03/16 07:55:45;;;;;;;12.70;10.20;;;;;;;5.92;89.44;102303.44;4717669;30;20033;-75
2022/03/16 07:58:11;;;;;;;15.43;10.93;;;;;;;6.16;88.93;102320.03;4717597;30;20099;-75
2022/03/16 08:00:37;;;;;;;13.15;10.23;;;;;;;6.36;88.19;102325.59;4717596;30;20538;-75
2022/03/16 08:03:03;;;;;;;14.73;11.13;;;;;;;6.42;87.88;102315.19;4717402;30;20057;-75
2022/03/16 08:05:30;;;;;;;14.77;10.55;;;;;;;6.67;87.10;102340.31;4717758;30;20033;-74
2022/03/16 08:07:55;;;;;;;12.82;9.98;;;;;;;6.66;85.75;102312.94;4717395;30;20116;-74
2022/03/16 08:10:21;;;;;;;12.73;9.40;;;;;;;6.86;84.91;102333.88;4717395;30;20055;-75
2022/03/16 08:12:46;;;;;;;15.82;10.57;;;;;;;6.94;84.79;102328.56;4717523;30;20111;-74
2022/03/16 08:15:12;;;;;;;13.43;9.13;;;;;;;6.84;83.63;102303.09;4717418;30;20040;-74
2022/03/16 08:17:38;;;;;;;12.88;9.85;;;;;;;7.11;83.44;102331.56;4717508;30;20036;-73
2022/03/16 08:20:03;;;;;;;16.33;10.32;;;;;;;7.21;83.65;102338.19;4716927;30;20083;-74
2022/03/16 08:22:34;;;;;;;13.10;9.75;;;;;;;7.20;83.36;102310.81;4717593;30;20032;-71
2022/03/16 08:25:01;;;;;;;13.88;9.90;;;;;;;7.46;82.73;102333.25;4716443;30;20545;-74
2022/03/16 08:27:28;;;;;;;13.15;10.20;;;;;;;7.50;81.45;102334.03;4716362;30;20041;-70
2022/03/16 08:29:54;;;;;;;12.60;9.43;;;;;;;7.48;81.79;102326.38;4716458;30;20033;-73
2022/03/16 08:32:20;;;;;;;12.35;9.20;;;;;;;7.45;80.80;102316.13;4717311;30;20494;-80
2022/03/16 08:34:46;;;;;;;14.15;10.27;;;;;;;7.44;81.53;102319.59;4717071;30;20044;-75
2022/03/16 08:37:12;;;;;;;13.35;10.63;;;;;;;7.30;80.90;102285.72;4715839;30;20033;-73
2022/03/16 08:39:38;;;;;;;13.75;10.60;;;;;;;7.45;80.45;102303.28;4717053;30;20565;-75
2022/03/16 08:42:05;;;;;;;13.15;10.20;;;;;;;7.69;80.35;102322.38;4717149;30;20055;-78
2022/03/16 08:44:31;;;;;;;15.20;10.70;;;;;;;7.76;80.22;102314.44;4717054;30;20170;-80
2022/03/16 08:46:57;;;;;;;12.90;10.35;;;;;;;7.79;80.24;102315.25;4716937;30;20036;-76
2022/03/16 08:49:23;;;;;;;13.52;10.07;;;;;;;7.86;78.69;102312.44;4716659;30;20037;-75
2022/03/16 08:51:48;;;;;;;12.10;10.05;;;;;;;7.95;79.01;102330.19;4716877;30;20029;-79
2022/03/16 08:54:14;;;;;;;14.07;11.10;;;;;;;7.89;79.48;102307.25;4716905;30;20121;-74
2022/03/16 08:56:40;;;;;;;15.90;11.13;;;;;;;7.93;78.51;102297.69;4716930;30;20037;-77
2022/03/16 08:59:06;;;;;;;13.85;10.50;;;;;;;7.99;77.98;102306.09;4716957;30;20033;-74
2022/03/16 09:01:32;;;;;;;13.77;11.20;;;;;;;7.85;78.01;102276.50;4716930;30;20050;-72
2022/03/16 09:03:57;;;;;;;13.90;10.38;;;;;;;8.13;78.21;102326.25;4716738;30;20110;-73
2022/03/16 09:06:22;;;;;;;13.15;10.68;;;;;;;8.05;77.15;102313.63;4716881;30;20041;-77
2022/03/16 09:08:48;;;;;;;16.08;11.02;;;;;;;8.17;77.97;102327.03;4716887;30;20150;-76
2022/03/16 09:11:13;;;;;;;14.10;11.40;;;;;;;8.13;77.84;102310.81;4716599;30;20456;-75
2022/03/16 09:13:39;;;;;;;13.63;10.10;;;;;;;8.29;77.92;102322.38;4716881;30;20089;-76
2022/03/16 09:16:04;;;;;;;14.80;10.50;;;;;;;8.36;76.74;102323.06;4716627;30;20040;-79
2022/03/16 09:18:30;;;;;;;14.57;10.85;;;;;;;8.30;76.09;102306.03;4715442;30;20132;-80
2022/03/16 09:20:55;;;;;;;13.48;10.50;;;;;;;8.29;75.93;102299.22;4716703;30;20052;-75
2022/03/16 09:23:20;;;;;;;13.32;10.35;;;;;;;8.34;75.95;102296.47;4716972;30;20025;-82
2022/03/16 09:25:46;;;;;;;12.18;10.13;;;;;;;8.45;75.65;102309.91;4716825;30;20120;-81
2022/03/16 09:28:11;;;;;;;13.68;10.65;;;;;;;8.59;76.14;102315.47;4716792;30;20064;-81
2022/03/16 09:30:37;;;;;;;13.23;10.70;;;;;;;8.59;74.63;102315.47;4716774;30;20613;-82
2022/03/16 09:33:04;;;;;;;14.10;10.43;;;;;;;8.63;75.67;102322.22;4716727;30;20120;-83
2022/03/16 09:35:31;;;;;;;13.15;10.65;;;;;;;8.71;75.57;102316.81;4715834;30;20395;-79
2022/03/16 09:37:58;;;;;;;14.98;10.70;;;;;;;8.75;74.71;102326.16;4702378;30;20029;-78
2022/03/16 09:40:24;;;;;;;15.20;11.38;;;;;;;8.62;75.17;102297.34;4703858;30;20060;-77
2022/03/16 09:42:52;;;;;;;13.77;11.27;;;;;;;8.82;74.67;102312.19;4720177;30;20029;-78
2022/03/16 09:45:20;;;;;;;14.80;11.30;;;;;;;8.90;75.09;102315.34;4719823;30;20059;-80
2022/03/16 09:50:19;;;;;;;16.23;11.52;;;;;;;9.07;74.23;102314.81;4720300;30;20061;-77
2022/03/16 09:52:46;;;;;;;13.05;10.32;;;;;;;9.13;73.68;102321.47;4719499;30;20402;-78
2022/03/16 09:55:12;;;;;;;15.80;11.02;;;;;;;9.17;74.16;102310.19;4719649;30;20079;-78
2022/03/16 09:57:37;;;;;;;13.88;11.13;;;;;;;9.21;73.09;102314.34;4719571;30;20041;-79
2022/03/16 10:00:03;;;;;;;15.13;11.00;;;;;;;9.24;73.47;102300.50;4719529;30;20091;-78
2022/03/16 10:02:29;;;;;;;13.95;10.43;;;;;;;9.30;73.04;102302.88;4719489;30;20060;-78
2022/03/16 10:04:54;;;;;;;14.73;11.35;;;;;;;9.38;73.42;102300.91;4719527;30;20036;-76
2022/03/16 10:07:29;;;;;;;14.50;11.05;;;;;;;9.40;72.76;102288.78;4719562;30;20556;-80
2022/03/16 10:15:24;;;;;;;15.57;11.30;;;;;;;9.45;71.62;102281.75;4719554;30;20039;-77
2022/03/16 10:17:56;;;;;;;13.45;10.80;;;;;;;9.57;70.95;102283.88;4719646;30;20041;-82
2022/03/16 10:20:28;;;;;;;13.95;11.15;;;;;;;9.56;71.38;102278.78;4719340;30;20029;-80
2022/03/16 10:23:28;;;;;;;13.75;10.82;;;;;;;9.70;71.61;102287.69;4719135;30;20467;-75
2022/03/16 10:25:55;;;;;;;13.38;10.65;;;;;;;9.64;72.27;102261.31;4631780;31;20047;-78
2022/03/16 10:28:42;;;;;;;14.07;11.50;;;;;;;9.90;72.00;102299.88;4631666;31;20073;-79
2022/03/16 10:31:08;;;;;;;16.80;11.77;;;;;;;9.87;70.83;102269.03;4631542;31;20039;-79
2022/03/16 10:33:50;;;;;;;16.00;12.45;;;;;;;10.06;71.82;102300.16;4631598;31;20036;-80
2022/03/16 10:36:20;;;;;;;15.10;12.25;;;;;;;9.91;70.62;102270.59;4631380;31;20253;-80
2022/03/16 10:38:57;;;;;;;18.05;12.40;;;;;;;10.12;71.39;102288.75;4631159;31;20065;-80
2022/03/16 10:47:17;;;;;;;16.27;12.02;;;;;;;10.14;71.23;102261.16;4631504;31;20070;-76
2022/03/16 10:49:48;;;;;;;15.20;11.98;;;;;;;10.19;71.52;102257.50;4641278;30;20121;-79
2022/03/16 10:52:20;;;;;;;14.15;11.20;;;;;;;10.38;70.35;102265.41;4647947;30;20081;-80
2022/03/16 10:54:50;;;;;;;16.58;12.65;;;;;;;10.51;71.12;102271.75;4647887;30;20219;-78
2022/03/16 10:57:15;;;;;;;15.15;11.82;;;;;;;10.50;69.70;102248.56;4647934;30;20117;-78
2022/03/16 10:59:43;;;;;;;14.20;11.07;;;;;;;10.58;70.43;102243.94;4647921;30;20149;-80
2022/03/16 11:02:13;;;;;;;13.60;11.02;;;;;;;10.74;70.04;102257.09;4689545;30;20080;-80
2022/03/16 11:04:40;;;;;;;15.27;11.60;;;;;;;10.70;69.49;102240.00;4736019;30;20470;-79
2022/03/16 11:07:07;;;;;;;15.50;10.88;;;;;;;10.85;70.04;102255.75;4735910;30;20465;-76
2022/03/16 11:09:36;;;;;;;13.38;10.82;;;;;;;10.80;69.25;102228.41;4735534;30;20517;-79
2022/03/16 11:14:48;;;;;;;14.18;9.95;;;;;;;11.02;68.82;102254.22;4736158;30;20176;-78
2022/03/16 11:17:14;;;;;;;13.48;10.68;;;;;;;10.94;68.69;102241.59;4735739;30;20110;-80
2022/03/16 11:19:44;;;;;;;12.98;10.50;;;;;;;11.11;67.81;102265.00;4735656;30;20125;-79
2022/03/16 11:22:13;;;;;;;17.33;11.15;;;;;;;11.19;67.89;102264.66;4735697;30;20040;-79
2022/03/16 11:24:45;;;;;;;13.07;10.00;;;;;;;11.21;67.69;102255.13;4735309;30;20086;-78
2022/03/16 11:27:34;;;;;;;14.52;11.00;;;;;;;11.34;67.84;102268.34;4735672;30;20033;-79